createdAt,value
2023-05-02T00:00:16.159Z,73.64
2023-05-02T00:05:08.370Z,74.17
2023-05-02T00:10:03.096Z,74.33
2023-05-02T00:14:55.015Z,75.00
2023-05-02T00:19:47.151Z,75.79
2023-05-02T00:24:38.956Z,76.68
2023-05-02T00:29:31.193Z,77.46
2023-05-02T00:34:23.041Z,78.49
2023-05-02T00:39:14.806Z,78.80
2023-05-02T00:44:06.704Z,79.19
2023-05-02T00:48:58.467Z,79.52
2023-05-02T00:53:50.991Z,80.05
2023-05-02T00:58:44.083Z,79.68
2023-05-02T01:03:51.385Z,77.60
2023-05-02T01:09:24.654Z,76.07
2023-05-02T01:14:18.176Z,76.19
2023-05-02T01:19:20.026Z,76.42
2023-05-02T01:24:25.143Z,76.57
2023-05-02T01:29:20.817Z,76.50
2023-05-02T01:34:12.831Z,77.81
2023-05-02T01:39:09.424Z,78.14
2023-05-02T01:44:03.406Z,78.48
2023-05-02T01:48:57.316Z,77.76
2023-05-02T01:53:50.411Z,78.58
2023-05-02T01:58:42.959Z,79.05
2023-05-02T02:03:34.613Z,79.02
2023-05-02T02:08:26.696Z,78.72
2023-05-02T02:13:32.262Z,78.58
2023-05-02T02:18:27.708Z,78.09
2023-05-02T02:23:22.269Z,77.29
2023-05-02T02:28:14.004Z,76.95
2023-05-02T02:33:06.374Z,76.92
2023-05-02T02:38:29.265Z,76.70
2023-05-02T02:43:26.150Z,77.04
2023-05-02T02:48:46.076Z,76.20
2023-05-02T02:54:01.133Z,76.61
2023-05-02T02:59:04.049Z,76.31
2023-05-02T03:03:57.375Z,76.94
2023-05-02T03:08:49.127Z,75.86
2023-05-02T03:13:44.456Z,76.02
2023-05-02T03:18:40.973Z,76.29
2023-05-02T03:23:33.324Z,75.62
2023-05-02T03:28:25.087Z,75.57
2023-05-02T03:33:18.046Z,75.15
2023-05-02T03:38:11.693Z,75.00
2023-05-02T03:43:03.809Z,74.55
2023-05-02T03:47:57.928Z,74.47
2023-05-02T03:52:50.562Z,74.04
2023-05-02T03:57:47.292Z,74.15
2023-05-02T04:02:39.342Z,74.29
2023-05-02T04:07:35.679Z,74.08
2023-05-02T04:12:29.992Z,74.38
2023-05-02T04:17:21.869Z,74.15
2023-05-02T04:22:14.970Z,73.94
2023-05-02T04:27:14.492Z,74.48
2023-05-02T04:32:07.787Z,74.95
2023-05-02T04:37:01.555Z,74.83
2023-05-02T04:41:53.708Z,75.08
2023-05-02T04:46:47.709Z,75.46
2023-05-02T04:51:39.536Z,75.45
2023-05-02T04:56:32.112Z,75.11
2023-05-02T05:01:24.996Z,75.52
2023-05-02T05:06:17.021Z,74.59
2023-05-02T05:11:10.136Z,73.10
2023-05-02T05:16:02.939Z,72.78
2023-05-02T05:20:57.595Z,72.17
2023-05-02T05:25:49.393Z,72.97
2023-05-02T05:30:42.676Z,72.92
2023-05-02T05:35:37.518Z,72.81
2023-05-02T05:40:29.384Z,73.18
2023-05-02T05:45:23.335Z,73.13
2023-05-02T05:50:15.188Z,73.12
2023-05-02T05:55:08.147Z,72.99
2023-05-02T06:00:00.649Z,72.26
2023-05-02T06:04:53.046Z,71.77
2023-05-02T06:09:48.380Z,72.42
2023-05-02T06:14:41.428Z,73.79
2023-05-02T06:19:34.231Z,76.05
2023-05-02T06:24:26.281Z,76.66
2023-05-02T06:29:18.018Z,75.42
2023-05-02T06:34:09.785Z,77.39
2023-05-02T06:39:01.564Z,77.54
2023-05-02T06:43:53.382Z,77.74
2023-05-02T06:48:45.329Z,77.42
2023-05-02T06:53:37.003Z,76.60
2023-05-02T06:58:30.290Z,76.52
2023-05-02T07:03:22.233Z,75.06
2023-05-02T07:08:13.981Z,74.02
2023-05-02T07:13:05.769Z,73.93
2023-05-02T07:17:57.477Z,75.18
2023-05-02T07:22:49.684Z,74.51
2023-05-02T07:27:41.591Z,73.25
2023-05-02T07:32:33.431Z,72.74
2023-05-02T07:37:25.233Z,71.28
2023-05-02T07:42:17.022Z,70.03
2023-05-02T07:47:09.238Z,70.76
2023-05-02T07:52:01.111Z,71.34
2023-05-02T07:56:52.887Z,70.02
2023-05-02T08:01:45.097Z,70.37
2023-05-02T08:06:37.210Z,70.76
2023-05-02T08:11:28.994Z,70.22
2023-05-02T08:16:20.998Z,69.01
2023-05-02T08:21:12.768Z,65.53
2023-05-02T08:26:05.139Z,63.16
2023-05-02T08:30:58.753Z,62.50
2023-05-02T08:35:50.522Z,61.96
2023-05-02T08:40:43.406Z,60.64
2023-05-02T08:45:39.853Z,59.28
2023-05-02T08:50:31.792Z,56.75
2023-05-02T08:55:27.906Z,59.10
2023-05-02T09:00:19.786Z,60.11
2023-05-02T09:05:12.248Z,59.91
2023-05-02T09:10:05.132Z,58.45
2023-05-02T09:15:16.848Z,55.07
2023-05-02T09:20:12.082Z,54.49
2023-05-02T09:25:05.877Z,53.99
2023-05-02T09:30:25.223Z,55.21
2023-05-02T09:35:26.891Z,54.67
2023-05-02T09:40:19.497Z,53.26
2023-05-02T09:45:26.353Z,51.33
2023-05-02T09:50:38.003Z,50.60
2023-05-02T09:55:30.600Z,50.57
2023-05-02T10:00:22.360Z,50.43
2023-05-02T10:05:14.318Z,50.88
2023-05-02T10:10:08.515Z,50.83
2023-05-02T10:15:04.196Z,49.95
2023-05-02T10:20:07.239Z,49.45
2023-05-02T10:25:00.748Z,47.93
2023-05-02T10:29:54.552Z,48.41
2023-05-02T10:34:47.741Z,48.53
2023-05-02T10:39:39.641Z,48.26
2023-05-02T10:44:40.237Z,47.82
2023-05-02T10:49:32.055Z,47.79
2023-05-02T10:54:24.844Z,46.10
2023-05-02T10:59:35.190Z,45.93
2023-05-02T11:05:00.543Z,48.29
2023-05-02T11:09:52.486Z,48.81
2023-05-02T11:14:47.668Z,46.58
2023-05-02T11:19:45.482Z,46.36
2023-05-02T11:24:41.523Z,46.47
2023-05-02T11:29:53.552Z,44.73
2023-05-02T11:34:45.763Z,44.26
2023-05-02T11:39:37.517Z,44.80
2023-05-02T11:44:29.272Z,42.84
2023-05-02T11:49:21.167Z,42.31
2023-05-02T11:54:20.708Z,41.24
2023-05-02T11:59:12.483Z,41.21
2023-05-02T12:04:07.031Z,38.85
2023-05-02T12:09:09.966Z,38.50
2023-05-02T12:14:02.492Z,37.90
2023-05-02T12:18:56.815Z,37.59
2023-05-02T12:23:48.860Z,37.93
2023-05-02T12:28:57.167Z,38.53
2023-05-02T12:33:50.907Z,40.02
2023-05-02T12:38:51.180Z,41.25
2023-05-02T12:43:51.146Z,39.55
2023-05-02T12:48:44.851Z,37.87
2023-05-02T12:53:44.401Z,37.36
2023-05-02T12:58:47.361Z,38.32
2023-05-02T13:03:39.437Z,36.52
2023-05-02T13:08:33.138Z,36.51
2023-05-02T13:13:24.867Z,36.75
2023-05-02T13:18:16.678Z,36.73
2023-05-02T13:23:08.535Z,36.72
2023-05-02T13:28:00.407Z,36.03
2023-05-02T13:32:52.591Z,35.08
2023-05-02T13:37:44.582Z,36.71
2023-05-02T13:42:36.658Z,37.32
2023-05-02T13:47:28.765Z,35.81
2023-05-02T13:52:20.624Z,37.29
2023-05-02T13:57:12.666Z,38.28
2023-05-02T14:02:04.646Z,38.21
2023-05-02T14:06:56.582Z,38.43
2023-05-02T14:11:49.126Z,38.08
2023-05-02T14:16:41.346Z,38.16
2023-05-02T14:21:33.165Z,37.31
2023-05-02T14:26:24.969Z,37.31
2023-05-02T14:31:16.824Z,36.76
2023-05-02T14:36:08.952Z,35.44
2023-05-02T14:41:02.789Z,33.73
2023-05-02T14:45:54.672Z,35.06
2023-05-02T14:50:46.495Z,34.88
2023-05-02T14:55:39.570Z,35.69
2023-05-02T15:00:34.815Z,35.98
2023-05-02T15:05:26.763Z,35.76
2023-05-02T15:10:18.593Z,37.17
2023-05-02T15:15:11.354Z,36.90
2023-05-02T15:20:04.744Z,37.71
2023-05-02T15:24:56.943Z,37.32
2023-05-02T15:29:48.726Z,36.27
2023-05-02T15:34:40.575Z,36.54
2023-05-02T15:39:32.637Z,35.80
2023-05-02T15:44:26.419Z,36.04
2023-05-02T15:49:18.236Z,35.43
2023-05-02T15:54:09.945Z,35.78
2023-05-02T15:59:01.811Z,35.74
2023-05-02T16:03:53.618Z,36.34
2023-05-02T16:08:45.507Z,36.34
2023-05-02T16:13:37.420Z,36.43
2023-05-02T16:18:29.213Z,36.21
2023-05-02T16:23:22.162Z,37.02
2023-05-02T16:28:13.935Z,36.41
2023-05-02T16:33:05.852Z,36.91
2023-05-02T16:37:57.608Z,35.14
2023-05-02T16:42:49.316Z,37.04
2023-05-02T16:47:41.179Z,36.55
2023-05-02T16:52:33.111Z,37.05
2023-05-02T16:57:24.851Z,36.60
2023-05-02T17:02:17.927Z,37.15
2023-05-02T17:07:12.166Z,37.33
2023-05-02T17:12:04.420Z,38.03
2023-05-02T17:28:57.562Z,39.16
2023-05-02T17:33:49.302Z,39.53
2023-05-02T17:38:42.008Z,39.73
2023-05-02T17:43:33.771Z,40.48
2023-05-02T17:48:25.585Z,41.06
2023-05-02T17:53:17.398Z,40.26
2023-05-02T17:58:09.272Z,40.92
2023-05-02T18:03:01.047Z,41.48
2023-05-02T18:07:53.256Z,41.45
2023-05-02T18:12:45.061Z,41.62
2023-05-02T18:17:39.712Z,42.65
2023-05-02T18:22:32.557Z,42.94
2023-05-02T18:27:25.533Z,43.42
2023-05-02T18:32:17.252Z,44.36
2023-05-02T18:37:09.792Z,44.13
2023-05-02T18:42:03.295Z,45.00
2023-05-02T18:46:55.042Z,45.08
2023-05-02T18:51:46.923Z,45.14
2023-05-02T18:56:41.578Z,45.43
2023-05-02T19:01:33.478Z,46.61
2023-05-02T19:06:26.204Z,47.00
2023-05-02T19:11:19.562Z,46.97
2023-05-02T19:16:13.667Z,47.26
2023-05-02T19:21:13.806Z,47.51
2023-05-02T19:26:10.730Z,47.60
2023-05-02T19:31:07.903Z,48.06
2023-05-02T19:35:59.600Z,48.43
2023-05-02T19:40:51.317Z,48.71
2023-05-02T19:45:43.140Z,49.20
2023-05-02T19:50:34.831Z,49.46
2023-05-02T19:55:26.510Z,49.52
2023-05-02T20:00:18.512Z,50.03
2023-05-02T20:05:10.509Z,49.79
2023-05-02T20:10:02.500Z,50.72
2023-05-02T20:14:54.856Z,51.12
2023-05-02T20:19:46.572Z,51.26
2023-05-02T20:24:38.295Z,51.60
2023-05-02T20:29:30.032Z,52.12
2023-05-02T20:34:22.105Z,52.81
2023-05-02T20:39:14.323Z,52.53
2023-05-02T20:44:06.385Z,52.95
2023-05-02T20:48:59.416Z,52.89
2023-05-02T20:53:51.436Z,53.12
2023-05-02T20:58:43.354Z,53.69
2023-05-02T21:03:39.238Z,54.05
2023-05-02T21:08:31.069Z,54.70
2023-05-02T21:13:22.952Z,54.72
2023-05-02T21:18:14.705Z,55.38
2023-05-02T21:23:06.576Z,55.50
2023-05-02T21:27:58.425Z,55.38
2023-05-02T21:32:50.524Z,55.40
2023-05-02T21:37:42.280Z,56.11
2023-05-02T21:42:34.552Z,56.81
2023-05-02T21:47:26.350Z,57.03
2023-05-02T21:52:18.059Z,56.75
2023-05-02T21:57:09.730Z,56.67
2023-05-02T22:02:01.438Z,56.87
2023-05-02T22:06:53.468Z,56.17
2023-05-02T22:11:45.207Z,56.76
2023-05-02T22:16:37.582Z,55.94
2023-05-02T22:21:29.984Z,56.30
2023-05-02T22:26:22.872Z,56.26
2023-05-02T22:31:15.619Z,57.13
2023-05-02T22:36:08.712Z,57.33
2023-05-02T22:41:00.909Z,57.63
2023-05-02T22:45:52.921Z,58.17
2023-05-02T22:50:48.725Z,58.50
2023-05-02T22:55:40.514Z,58.54
2023-05-02T23:13:26.866Z,59.21
2023-05-02T23:18:24.918Z,59.67
2023-05-02T23:23:19.498Z,61.28
2023-05-02T23:28:12.691Z,60.88
2023-05-02T23:33:05.126Z,61.08
2023-05-02T23:38:00.978Z,62.03
2023-05-02T23:42:54.289Z,61.60
2023-05-02T23:47:47.045Z,61.91
2023-05-02T23:52:40.063Z,61.12
2023-05-02T23:57:31.958Z,60.67
